createdAt,value
2018-10-16T00:01:27.855Z,100956.92
2018-10-16T00:03:58.319Z,100955.94
2018-10-16T00:06:28.847Z,100970.68
2018-10-16T00:08:59.415Z,100971.19
2018-10-16T00:11:30.105Z,100970.95
2018-10-16T00:14:00.703Z,100962.84
2018-10-16T00:16:31.172Z,100960.98
2018-10-16T00:19:01.428Z,100969.16
2018-10-16T00:21:31.828Z,100967.12
2018-10-16T00:24:02.386Z,100966.15
2018-10-16T00:26:32.892Z,100968.11
2018-10-16T00:29:03.367Z,100968.11
2018-10-16T00:31:33.951Z,100973.30
2018-10-16T00:34:04.229Z,100972.27
2018-10-16T00:36:35.376Z,100973.88
2018-10-16T00:39:07.884Z,100975.09
2018-10-16T00:41:39.136Z,100976.31
2018-10-16T00:44:11.016Z,100972.33
2018-10-16T00:46:48.187Z,100977.59
2018-10-16T00:49:18.908Z,100983.76
2018-10-16T00:51:49.368Z,100982.97
2018-10-16T00:54:19.964Z,100981.16
2018-10-16T00:56:50.352Z,100975.97
2018-10-16T00:59:20.708Z,100987.80
2018-10-16T01:01:51.091Z,100985.32
2018-10-16T01:04:21.889Z,100993.17
2018-10-16T01:06:52.270Z,100997.04
2018-10-16T01:09:22.735Z,101000.64
2018-10-16T01:11:53.219Z,100995.31
2018-10-16T01:14:23.579Z,100996.06
2018-10-16T01:16:53.975Z,100993.87
2018-10-16T01:19:28.248Z,100995.16
2018-10-16T01:21:59.003Z,100988.45
2018-10-16T01:24:29.488Z,100984.31
2018-10-16T01:26:59.766Z,100990.51
2018-10-16T01:29:30.187Z,100993.32
2018-10-16T01:32:00.679Z,100982.87
2018-10-16T01:34:31.019Z,100979.91
2018-10-16T01:37:01.414Z,100979.07
2018-10-16T01:39:31.876Z,100978.25
2018-10-16T01:42:02.394Z,100984.16
2018-10-16T01:44:32.712Z,100982.27
2018-10-16T01:47:03.015Z,100984.73
2018-10-16T01:49:33.396Z,100984.80
2018-10-16T01:52:03.581Z,100985.55
2018-10-16T01:54:34.094Z,100990.14
2018-10-16T01:57:04.565Z,100996.55
2018-10-16T01:59:34.913Z,100996.48
2018-10-16T02:02:05.677Z,100996.30
2018-10-16T02:04:36.220Z,100993.59
2018-10-16T02:07:06.834Z,101002.25
2018-10-16T02:09:37.189Z,101002.64
2018-10-16T02:12:07.778Z,100997.53
2018-10-16T02:14:38.199Z,100999.41
2018-10-16T02:17:08.746Z,100999.30
2018-10-16T02:19:38.944Z,100999.22
2018-10-16T02:22:09.247Z,100999.59
2018-10-16T02:24:39.938Z,101000.70
2018-10-16T02:27:10.248Z,101006.03
2018-10-16T02:29:40.748Z,101011.02
2018-10-16T02:32:11.066Z,101005.97
2018-10-16T02:34:41.484Z,101011.33
2018-10-16T02:37:11.967Z,101007.98
2018-10-16T02:39:42.443Z,101019.91
2018-10-16T02:42:12.924Z,101013.42
2018-10-16T02:44:43.415Z,101016.08
2018-10-16T02:47:13.677Z,101017.31
2018-10-16T02:49:44.164Z,101027.69
2018-10-16T02:52:14.628Z,101020.41
2018-10-16T02:54:45.112Z,101021.91
2018-10-16T02:57:15.532Z,101021.45
2018-10-16T02:59:46.020Z,101021.20
2018-10-16T03:02:16.367Z,101027.55
2018-10-16T03:04:46.824Z,101029.17
2018-10-16T03:07:17.316Z,101027.05
2018-10-16T03:09:47.987Z,101039.48
2018-10-16T03:12:18.436Z,101041.05
2018-10-16T03:14:49.007Z,101039.48
2018-10-16T03:17:19.478Z,101044.59
2018-10-16T03:19:50.090Z,101046.50
2018-10-16T03:22:20.436Z,101052.79
2018-10-16T03:24:50.996Z,101045.67
2018-10-16T03:27:21.492Z,101042.41
2018-10-16T03:29:52.122Z,101045.25
2018-10-16T03:32:22.575Z,101045.84
2018-10-16T03:34:52.952Z,101040.40
2018-10-16T03:37:23.928Z,101043.65
2018-10-16T03:39:54.357Z,101044.16
2018-10-16T03:42:24.687Z,101041.83
2018-10-16T03:44:55.167Z,101046.81
2018-10-16T03:47:25.797Z,101036.75
2018-10-16T03:49:56.153Z,101038.55
2018-10-16T03:52:26.628Z,101041.05
2018-10-16T03:54:56.904Z,101048.61
2018-10-16T03:57:27.387Z,101047.78
2018-10-16T03:59:57.612Z,101058.27
2018-10-16T04:02:27.867Z,101061.80
2018-10-16T04:04:58.173Z,101060.52
2018-10-16T04:07:29.180Z,101065.18
2018-10-16T04:09:59.684Z,101059.52
2018-10-16T04:12:30.152Z,101058.75
2018-10-16T04:15:00.644Z,101064.14
2018-10-16T04:17:31.148Z,101063.36
2018-10-16T04:20:01.648Z,101072.77
2018-10-16T04:22:32.150Z,101072.03
2018-10-16T04:25:02.509Z,101069.07
2018-10-16T04:27:32.940Z,101071.34
2018-10-16T04:30:03.459Z,101069.84
2018-10-16T04:32:33.844Z,101073.60
2018-10-16T04:35:06.720Z,101068.30
2018-10-16T04:37:37.028Z,101069.01
2018-10-16T04:40:07.934Z,101066.88
2018-10-16T04:42:38.492Z,101069.44
2018-10-16T04:45:19.495Z,101078.59
2018-10-16T04:48:00.402Z,101070.97
2018-10-16T04:50:38.910Z,101069.54
2018-10-16T04:53:18.249Z,101069.67
2018-10-16T04:56:01.688Z,101079.36
2018-10-16T04:58:42.973Z,101083.41
2018-10-16T05:01:23.197Z,101083.20
2018-10-16T05:04:03.880Z,101083.27
2018-10-16T05:06:41.738Z,101082.99
2018-10-16T05:09:19.889Z,101088.17
2018-10-16T05:11:59.602Z,101087.61
2018-10-16T05:14:39.884Z,101082.70
2018-10-16T05:17:10.390Z,101083.19
2018-10-16T05:19:40.959Z,101087.54
2018-10-16T05:22:11.444Z,101086.67
2018-10-16T05:24:41.765Z,101096.70
2018-10-16T05:27:12.244Z,101098.40
2018-10-16T05:29:42.627Z,101101.55
2018-10-16T05:32:13.001Z,101106.52
2018-10-16T05:34:43.453Z,101099.91
2018-10-16T05:37:13.850Z,101108.20
2018-10-16T05:39:44.139Z,101109.78
2018-10-16T05:42:14.493Z,101109.78
2018-10-16T05:44:44.688Z,101115.92
2018-10-16T05:47:15.079Z,101111.56
2018-10-16T05:49:45.468Z,101107.13
2018-10-16T05:52:15.812Z,101112.37
2018-10-16T05:54:46.090Z,101106.32
2018-10-16T05:57:16.488Z,101108.55
2018-10-16T05:59:46.977Z,101104.19
2018-10-16T06:02:17.256Z,101110.17
2018-10-16T06:04:47.623Z,101117.95
2018-10-16T06:07:18.137Z,101118.22
2018-10-16T06:09:48.991Z,101122.31
2018-10-16T06:12:20.213Z,101126.41
2018-10-16T06:14:50.477Z,101133.56
2018-10-16T06:17:20.851Z,101130.31
2018-10-16T06:19:51.217Z,101131.78
2018-10-16T06:22:21.774Z,101140.05
2018-10-16T06:24:52.229Z,101139.38
2018-10-16T06:27:22.776Z,101148.80
2018-10-16T06:29:53.067Z,101154.31
2018-10-16T06:32:23.687Z,101159.63
2018-10-16T06:34:53.905Z,101164.50
2018-10-16T06:37:24.487Z,101167.59
2018-10-16T06:39:54.867Z,101165.80
2018-10-16T06:42:25.530Z,101173.73
2018-10-16T06:44:55.959Z,101180.32
2018-10-16T06:47:26.426Z,101177.67
2018-10-16T06:49:56.801Z,101177.88
2018-10-16T06:52:27.383Z,101171.48
2018-10-16T06:54:57.760Z,101177.13
2018-10-16T06:57:28.071Z,101171.85
2018-10-16T06:59:58.573Z,101178.01
2018-10-16T07:02:29.651Z,101178.63
2018-10-16T07:04:59.906Z,101175.44
2018-10-16T07:07:30.419Z,101178.00
2018-10-16T07:10:00.480Z,101182.02
2018-10-16T07:12:30.960Z,101189.53
2018-10-16T07:15:01.543Z,101181.73
2018-10-16T07:17:31.680Z,101187.28
2018-10-16T07:20:02.070Z,101186.67
2018-10-16T07:22:32.695Z,101184.16
2018-10-16T07:25:03.290Z,101184.50
2018-10-16T07:27:33.963Z,101183.34
2018-10-16T07:30:04.627Z,101188.63
2018-10-16T07:32:35.012Z,101196.06
2018-10-16T07:35:06.731Z,101192.28
2018-10-16T07:37:37.943Z,101195.66
2018-10-16T07:40:09.579Z,101186.28
2018-10-16T07:42:40.443Z,101183.25
2018-10-16T07:45:10.900Z,101194.60
2018-10-16T07:47:41.460Z,101197.91
2018-10-16T07:50:13.095Z,101197.95
2018-10-16T07:52:43.492Z,101197.70
2018-10-16T07:55:14.696Z,101203.30
2018-10-16T07:57:45.025Z,101212.86
2018-10-16T08:00:15.567Z,101206.05
2018-10-16T08:02:46.129Z,101217.62
2018-10-16T08:05:16.574Z,101214.54
2018-10-16T08:07:47.216Z,101214.62
2018-10-16T08:10:17.674Z,101216.27
2018-10-16T08:12:48.264Z,101221.83
2018-10-16T08:15:18.642Z,101231.06
2018-10-16T08:17:49.025Z,101235.67
2018-10-16T08:20:19.365Z,101234.42
2018-10-16T08:22:49.754Z,101227.34
2018-10-16T08:25:19.925Z,101221.83
2018-10-16T08:27:50.433Z,101222.95
2018-10-16T08:30:20.966Z,101224.30
2018-10-16T08:32:51.556Z,101214.72
2018-10-16T08:35:22.100Z,101216.20
2018-10-16T08:38:19.003Z,101219.20
2018-10-16T08:40:49.555Z,101224.34
2018-10-16T08:43:47.963Z,101222.02
2018-10-16T08:46:35.433Z,101215.19
2018-10-16T08:49:22.253Z,101214.30
2018-10-16T08:51:54.972Z,101214.64
2018-10-16T08:54:25.476Z,101212.92
2018-10-16T08:56:55.656Z,101221.13
2018-10-16T08:59:26.188Z,101221.13
2018-10-16T09:01:56.629Z,101224.39
2018-10-16T09:04:27.012Z,101227.34
2018-10-16T09:06:57.504Z,101222.92
2018-10-16T09:09:27.885Z,101226.80
2018-10-16T09:11:58.236Z,101227.50
2018-10-16T09:14:28.891Z,101230.39
2018-10-16T09:16:58.971Z,101232.58
2018-10-16T09:19:29.259Z,101226.95
2018-10-16T09:21:59.656Z,101236.45
2018-10-16T09:24:30.229Z,101230.88
2018-10-16T09:27:00.757Z,101232.75
2018-10-16T09:29:31.485Z,101228.58
2018-10-16T09:32:01.765Z,101228.79
2018-10-16T09:34:32.168Z,101229.81
2018-10-16T09:37:02.491Z,101225.94
2018-10-16T09:39:32.824Z,101222.34
2018-10-16T09:42:03.179Z,101228.05
2018-10-16T09:44:33.653Z,101230.40
2018-10-16T09:47:04.088Z,101234.52
2018-10-16T09:49:34.621Z,101236.97
2018-10-16T09:52:04.841Z,101234.17
2018-10-16T09:54:35.353Z,101242.57
2018-10-16T09:57:06.106Z,101235.56
2018-10-16T09:59:36.558Z,101237.25
2018-10-16T10:02:07.332Z,101237.79
2018-10-16T10:04:37.947Z,101233.29
2018-10-16T10:07:08.513Z,101235.23
2018-10-16T10:09:38.910Z,101232.09
2018-10-16T10:12:09.209Z,101233.25
2018-10-16T10:14:39.531Z,101231.17
2018-10-16T10:17:10.011Z,101229.63
2018-10-16T10:19:40.540Z,101228.56
2018-10-16T10:22:10.910Z,101230.55
2018-10-16T10:24:41.275Z,101230.14
2018-10-16T10:27:11.677Z,101223.59
2018-10-16T10:29:42.073Z,101221.80
2018-10-16T10:32:12.351Z,101223.13
2018-10-16T10:34:42.809Z,101224.02
2018-10-16T10:37:13.420Z,101223.97
2018-10-16T10:39:43.977Z,101223.94
2018-10-16T10:42:14.315Z,101224.83
2018-10-16T10:44:44.803Z,101225.14
2018-10-16T10:47:15.300Z,101229.60
2018-10-16T10:49:45.867Z,101226.20
2018-10-16T10:52:16.392Z,101233.73
2018-10-16T10:54:46.948Z,101231.71
2018-10-16T10:57:17.750Z,101230.56
2018-10-16T10:59:48.128Z,101233.93
2018-10-16T11:02:18.511Z,101228.55
2018-10-16T11:04:48.960Z,101232.53
2018-10-16T11:07:19.432Z,101232.19
2018-10-16T11:09:49.924Z,101230.55
2018-10-16T11:12:19.996Z,101226.00
2018-10-16T11:14:50.273Z,101225.46
2018-10-16T11:17:20.740Z,101227.64
2018-10-16T11:19:51.153Z,101226.75
2018-10-16T11:22:21.741Z,101221.06
2018-10-16T11:24:52.129Z,101222.38
2018-10-16T11:27:22.381Z,101214.33
2018-10-16T11:29:52.763Z,101215.41
2018-10-16T11:32:23.457Z,101218.55
2018-10-16T11:34:53.957Z,101210.95
2018-10-16T11:37:24.333Z,101214.38
2018-10-16T11:39:54.694Z,101214.27
2018-10-16T11:42:25.087Z,101214.23
2018-10-16T11:44:55.541Z,101216.17
2018-10-16T11:47:26.023Z,101214.78
2018-10-16T11:49:56.516Z,101217.50
2018-10-16T11:52:26.982Z,101215.95
2018-10-16T11:54:57.132Z,101221.02
2018-10-16T11:57:27.575Z,101220.16
2018-10-16T11:59:57.953Z,101218.05
2018-10-16T12:02:29.287Z,101221.80
2018-10-16T12:05:00.045Z,101226.25
2018-10-16T12:07:30.336Z,101227.80
2018-10-16T12:10:00.795Z,101222.77
2018-10-16T12:12:31.176Z,101222.81
2018-10-16T12:15:01.632Z,101223.69
2018-10-16T12:17:36.800Z,101224.07
2018-10-16T12:20:14.439Z,101221.58
2018-10-16T12:22:44.765Z,101226.44
2018-10-16T12:25:14.943Z,101224.07
2018-10-16T12:27:45.305Z,101227.30
2018-10-16T12:30:15.708Z,101225.74
2018-10-16T12:32:46.090Z,101223.20
2018-10-16T12:35:16.333Z,101217.40
2018-10-16T12:37:46.799Z,101214.47
2018-10-16T12:40:17.427Z,101218.61
2018-10-16T12:42:47.948Z,101212.64
2018-10-16T12:45:18.293Z,101208.89
2018-10-16T12:47:48.568Z,101214.23
2018-10-16T12:50:18.956Z,101218.34
2018-10-16T12:52:49.379Z,101226.25
2018-10-16T12:55:19.604Z,101221.88
2018-10-16T12:57:50.039Z,101217.63
2018-10-16T13:00:20.319Z,101214.23
2018-10-16T13:02:50.849Z,101222.06
2018-10-16T13:05:21.563Z,101218.84
2018-10-16T13:07:52.166Z,101219.30
2018-10-16T13:10:22.914Z,101215.01
2018-10-16T13:12:53.380Z,101219.74
2018-10-16T13:15:23.967Z,101218.78
2018-10-16T13:17:54.228Z,101219.85
2018-10-16T13:20:24.640Z,101216.45
2018-10-16T13:22:55.068Z,101212.02
2018-10-16T13:25:25.554Z,101215.46
2018-10-16T13:27:56.121Z,101218.58
2018-10-16T13:30:26.427Z,101217.66
2018-10-16T13:32:56.828Z,101211.05
2018-10-16T13:35:27.944Z,101219.14
2018-10-16T13:37:58.475Z,101218.54
2018-10-16T13:40:28.875Z,101221.94
2018-10-16T13:42:59.543Z,101220.96
2018-10-16T13:45:29.853Z,101215.57
2018-10-16T13:48:00.268Z,101220.50
2018-10-16T13:50:31.015Z,101214.80
2018-10-16T13:53:01.975Z,101217.50
2018-10-16T13:55:32.398Z,101221.97
2018-10-16T13:58:02.658Z,101217.53
2018-10-16T14:00:33.031Z,101219.31
2018-10-16T14:03:03.498Z,101220.66
2018-10-16T14:05:33.885Z,101219.34
2018-10-16T14:08:04.513Z,101221.45
2018-10-16T14:10:34.860Z,101216.48
2018-10-16T14:13:05.729Z,101218.58
2018-10-16T14:15:36.191Z,101217.20
2018-10-16T14:18:07.156Z,101223.48
2018-10-16T14:20:37.527Z,101223.63
2018-10-16T14:23:08.087Z,101221.83
2018-10-16T14:25:38.348Z,101224.75
2018-10-16T14:28:08.926Z,101225.44
2018-10-16T14:30:39.241Z,101224.88
2018-10-16T14:33:11.477Z,101228.59
2018-10-16T14:35:41.980Z,101230.95
2018-10-16T14:38:12.429Z,101225.41
2018-10-16T14:40:43.233Z,101229.22
2018-10-16T14:43:13.657Z,101233.55
2018-10-16T14:45:43.894Z,101231.03
2018-10-16T14:48:14.205Z,101229.91
2018-10-16T14:50:44.671Z,101230.42
2018-10-16T14:53:15.241Z,101232.09
2018-10-16T14:55:45.751Z,101231.18
2018-10-16T14:58:16.377Z,101233.03
2018-10-16T15:00:46.910Z,101236.30
2018-10-16T15:03:17.412Z,101245.90
2018-10-16T15:05:47.623Z,101245.45
2018-10-16T15:08:18.125Z,101243.41
2018-10-16T15:10:48.521Z,101243.95
2018-10-16T15:13:18.926Z,101240.03
2018-10-16T15:15:49.518Z,101240.77
2018-10-16T15:18:19.979Z,101241.98
2018-10-16T15:20:50.241Z,101239.12
2018-10-16T15:23:20.611Z,101243.84
2018-10-16T15:25:51.024Z,101243.75
2018-10-16T15:28:21.508Z,101238.70
2018-10-16T15:30:51.973Z,101242.66
2018-10-16T15:33:22.384Z,101237.75
2018-10-16T15:35:52.955Z,101238.38
2018-10-16T15:38:23.351Z,101234.23
2018-10-16T15:40:53.953Z,101231.13
2018-10-16T15:43:24.358Z,101233.30
2018-10-16T15:45:54.871Z,101236.37
2018-10-16T15:48:25.239Z,101235.80
2018-10-16T15:50:55.435Z,101240.59
2018-10-16T15:53:25.816Z,101243.98
2018-10-16T15:55:56.280Z,101244.25
2018-10-16T15:58:26.862Z,101243.93
2018-10-16T16:00:57.235Z,101238.31
2018-10-16T16:03:27.750Z,101247.31
2018-10-16T16:05:58.240Z,101246.02
2018-10-16T16:08:28.824Z,101252.59
2018-10-16T16:10:59.297Z,101252.19
2018-10-16T16:13:29.643Z,101250.77
2018-10-16T16:16:00.065Z,101252.33
2018-10-16T16:18:30.456Z,101256.73
2018-10-16T16:21:01.026Z,101250.40
2018-10-16T16:23:31.594Z,101254.34
2018-10-16T16:26:02.027Z,101256.23
2018-10-16T16:28:32.351Z,101251.80
2018-10-16T16:31:02.817Z,101254.54
2018-10-16T16:33:33.193Z,101258.10
2018-10-16T16:36:03.822Z,101263.96
2018-10-16T16:38:34.312Z,101265.34
2018-10-16T16:41:04.898Z,101266.33
2018-10-16T16:43:35.316Z,101268.91
2018-10-16T16:46:05.921Z,101275.69
2018-10-16T16:48:36.379Z,101271.98
2018-10-16T16:51:07.073Z,101277.47
2018-10-16T16:53:37.389Z,101277.22
2018-10-16T16:56:08.170Z,101276.70
2018-10-16T16:58:38.571Z,101279.06
2018-10-16T17:01:09.126Z,101280.72
2018-10-16T17:03:39.511Z,101280.44
2018-10-16T17:06:09.796Z,101281.35
2018-10-16T17:08:40.154Z,101289.55
2018-10-16T17:11:10.512Z,101282.53
2018-10-16T17:13:40.836Z,101285.31
2018-10-16T17:16:11.157Z,101294.22
2018-10-16T17:18:41.557Z,101289.56
2018-10-16T17:21:12.162Z,101295.23
2018-10-16T17:23:42.645Z,101293.66
2018-10-16T17:26:13.447Z,101295.31
2018-10-16T17:28:43.625Z,101300.90
2018-10-16T17:31:14.015Z,101296.92
2018-10-16T17:33:44.360Z,101295.27
2018-10-16T17:36:14.833Z,101300.45
2018-10-16T17:38:44.998Z,101294.78
2018-10-16T17:41:15.664Z,101295.48
2018-10-16T17:43:46.109Z,101291.95
2018-10-16T17:46:16.709Z,101298.84
2018-10-16T17:48:47.139Z,101300.71
2018-10-16T17:51:17.461Z,101303.45
2018-10-16T17:53:47.803Z,101303.55
2018-10-16T17:56:18.271Z,101305.80
2018-10-16T17:58:48.863Z,101311.37
2018-10-16T18:01:20.140Z,101315.41
2018-10-16T18:03:50.435Z,101313.73
2018-10-16T18:06:21.028Z,101309.42
2018-10-16T18:08:51.333Z,101315.04
2018-10-16T18:11:21.711Z,101317.88
2018-10-16T18:13:52.053Z,101315.81
2018-10-16T18:16:22.492Z,101316.78
2018-10-16T18:18:52.949Z,101312.09
2018-10-16T18:21:23.308Z,101319.91
2018-10-16T18:23:53.726Z,101317.78
2018-10-16T18:26:24.158Z,101314.44
2018-10-16T18:28:54.492Z,101315.59
2018-10-16T18:31:25.193Z,101314.66
2018-10-16T18:33:55.412Z,101311.98
2018-10-16T18:36:26.288Z,101316.61
2018-10-16T18:38:57.041Z,101316.44
2018-10-16T18:41:27.475Z,101317.92
2018-10-16T18:43:57.865Z,101320.03
2018-10-16T18:46:29.004Z,101322.83
2018-10-16T18:48:59.307Z,101325.63
2018-10-16T18:51:29.619Z,101317.59
2018-10-16T18:53:59.884Z,101321.93
2018-10-16T18:56:30.625Z,101311.63
2018-10-16T18:59:01.058Z,101319.80
2018-10-16T19:01:31.532Z,101313.45
2018-10-16T19:04:01.929Z,101312.23
2018-10-16T19:06:32.376Z,101312.79
2018-10-16T19:09:03.054Z,101318.96
2018-10-16T19:11:33.475Z,101319.34
2018-10-16T19:14:03.889Z,101314.41
2018-10-16T19:16:34.318Z,101315.98
2018-10-16T19:19:04.832Z,101317.12
2018-10-16T19:21:35.443Z,101321.15
2018-10-16T19:24:05.827Z,101319.86
2018-10-16T19:26:36.235Z,101322.86
2018-10-16T19:29:07.049Z,101316.56
2018-10-16T19:31:37.496Z,101317.70
2018-10-16T19:34:08.047Z,101323.04
2018-10-16T19:36:38.602Z,101320.32
2018-10-16T19:39:11.964Z,101318.73
2018-10-16T19:41:42.419Z,101322.86
2018-10-16T19:44:12.833Z,101329.31
2018-10-16T19:46:43.268Z,101328.34
2018-10-16T19:49:13.667Z,101326.79
2018-10-16T19:51:44.256Z,101334.47
2018-10-16T19:54:14.561Z,101332.95
2018-10-16T19:56:44.997Z,101330.23
2018-10-16T19:59:15.295Z,101336.41
2018-10-16T20:01:45.757Z,101336.88
2018-10-16T20:04:16.177Z,101339.61
2018-10-16T20:06:46.835Z,101341.36
2018-10-16T20:09:17.512Z,101341.84
2018-10-16T20:11:48.108Z,101343.63
2018-10-16T20:14:18.601Z,101350.83
2018-10-16T20:16:49.097Z,101345.59
2018-10-16T20:19:19.201Z,101343.45
2018-10-16T20:21:50.356Z,101339.97
2018-10-16T20:24:20.816Z,101345.59
2018-10-16T20:26:51.324Z,101349.13
2018-10-16T20:29:21.868Z,101345.78
2018-10-16T20:31:52.383Z,101348.13
2018-10-16T20:34:22.759Z,101346.81
2018-10-16T20:36:53.152Z,101346.34
2018-10-16T20:39:23.637Z,101345.87
2018-10-16T20:41:54.078Z,101345.70
2018-10-16T20:44:24.980Z,101342.70
2018-10-16T20:46:55.366Z,101343.92
2018-10-16T20:49:25.669Z,101335.88
2018-10-16T20:51:56.215Z,101335.31
2018-10-16T20:54:26.419Z,101338.25
2018-10-16T20:56:56.871Z,101339.02
2018-10-16T20:59:27.257Z,101340.32
2018-10-16T21:01:57.847Z,101337.38
2018-10-16T21:04:28.290Z,101340.09
2018-10-16T21:06:58.870Z,101340.47
2018-10-16T21:09:28.983Z,101344.29
2018-10-16T21:11:59.439Z,101342.40
2018-10-16T21:14:29.823Z,101337.89
2018-10-16T21:17:00.532Z,101337.25
2018-10-16T21:19:30.622Z,101333.19
2018-10-16T21:22:00.667Z,101335.90
2018-10-16T21:24:31.044Z,101341.53
2018-10-16T21:27:08.038Z,101333.60
2018-10-16T21:29:38.534Z,101336.31
2018-10-16T21:32:10.031Z,101337.17
2018-10-16T21:34:40.568Z,101334.89
2018-10-16T21:37:11.127Z,101333.20
2018-10-16T21:39:42.136Z,101339.53
2018-10-16T21:42:12.635Z,101342.98
2018-10-16T21:44:43.027Z,101344.25
2018-10-16T21:47:13.501Z,101342.30
2018-10-16T21:49:43.749Z,101341.62
2018-10-16T21:52:14.313Z,101335.41
2018-10-16T21:54:44.812Z,101335.34
2018-10-16T21:57:16.277Z,101338.39
2018-10-16T21:59:46.680Z,101329.53
2018-10-16T22:02:22.373Z,101333.44
2018-10-16T22:04:52.699Z,101333.44
2018-10-16T22:07:23.103Z,101333.17
2018-10-16T22:09:53.627Z,101332.22
2018-10-16T22:12:24.142Z,101329.31
2018-10-16T22:14:54.410Z,101330.66
2018-10-16T22:17:24.860Z,101330.66
2018-10-16T22:19:55.146Z,101329.13
2018-10-16T22:22:25.647Z,101331.05
2018-10-16T22:24:56.049Z,101339.30
2018-10-16T22:27:26.425Z,101340.61
2018-10-16T22:29:56.772Z,101335.00
2018-10-16T22:32:27.193Z,101331.95
2018-10-16T22:34:57.712Z,101332.13
2018-10-16T22:37:28.210Z,101329.38
2018-10-16T22:39:58.411Z,101326.55
2018-10-16T22:42:28.920Z,101325.84
2018-10-16T22:44:59.437Z,101324.71
2018-10-16T22:47:29.945Z,101326.09
2018-10-16T22:50:00.456Z,101324.09
2018-10-16T22:52:31.045Z,101319.05
2018-10-16T22:55:01.714Z,101323.03
2018-10-16T22:57:32.207Z,101327.41
2018-10-16T23:00:02.676Z,101326.71
2018-10-16T23:02:33.063Z,101321.50
2018-10-16T23:05:03.503Z,101318.06
2018-10-16T23:07:33.823Z,101315.62
2018-10-16T23:10:04.747Z,101315.62
2018-10-16T23:12:35.160Z,101313.45
2018-10-16T23:15:05.999Z,101314.75
2018-10-16T23:17:36.463Z,101312.16
2018-10-16T23:20:08.033Z,101315.52
2018-10-16T23:22:38.583Z,101313.95
2018-10-16T23:25:09.240Z,101315.02
2018-10-16T23:27:39.814Z,101316.76
2018-10-16T23:30:10.423Z,101313.61
2018-10-16T23:32:40.893Z,101305.59
2018-10-16T23:35:11.556Z,101306.06
2018-10-16T23:37:42.062Z,101303.78
2018-10-16T23:40:12.647Z,101304.44
2018-10-16T23:42:42.887Z,101303.84
2018-10-16T23:45:13.287Z,101304.31
2018-10-16T23:47:44.167Z,101298.57
2018-10-16T23:50:14.482Z,101307.08
2018-10-16T23:52:44.965Z,101309.77
2018-10-16T23:55:15.640Z,101308.75
2018-10-16T23:57:46.123Z,101307.91
